This is the latest recevied weather packets stored in our database for station/object YO2MAS-13. If no packets are shown the sender has not sent any weather packets the latest 10 day(s).
| Time | Temp. | Humidity | Pressure | Rain* | Wind** | Luminosity | Snow |
|---|---|---|---|---|---|---|---|
| 1777914061 | 25.56° C | 32% | 1018.3 hPa | - | - | - | - |
| 1777913161 | 25.56° C | 31% | 1018.3 hPa | - | - | - | - |
| 1777912261 | 26.11° C | 31% | 1018.2 hPa | - | - | - | - |
| 1777911361 | 26.67° C | 30% | 1018.2 hPa | - | - | - | - |
| 1777910461 | 27.78° C | 30% | 1018.1 hPa | - | - | - | - |
| 1777909561 | 26.67° C | 30% | 1018.3 hPa | - | - | - | - |
| 1777908661 | 26.67° C | 29% | 1018.4 hPa | - | - | - | - |
| 1777907761 | 30° C | 28% | 1018.2 hPa | - | - | - | - |
| 1777907551 | 28.33° C | 29% | 1018.4 hPa | - | - | - | - |
| 1777906861 | 28.33° C | 29% | 1018.4 hPa | - | - | - | - |
| 1777905961 | 28.33° C | 28% | 1018.6 hPa | - | - | - | - |
| 1777905061 | 29.44° C | 28% | 1018.6 hPa | - | - | - | - |
| 1777904161 | 30° C | 27% | 1018.6 hPa | - | - | - | - |
| 1777903261 | 28.89° C | 29% | 1018.9 hPa | - | - | - | - |
| 1777902361 | 26.11° C | 31% | 1019.2 hPa | - | - | - | - |
| 1777901463 | 27.78° C | 30% | 1019.3 hPa | - | - | - | - |
| 1777900561 | 27.22° C | 29% | 1019.6 hPa | - | - | - | - |
| 1777899661 | 26.67° C | 30% | 1019.7 hPa | - | - | - | - |
| 1777898761 | 26.67° C | 31% | 1019.9 hPa | - | - | - | - |
| 1777897861 | 26.67° C | 32% | 1020 hPa | - | - | - | - |
| 1777896961 | 27.78° C | 31% | 1020.1 hPa | - | - | - | - |
| 1777896061 | 27.78° C | 32% | 1020.3 hPa | - | - | - | - |
| 1777895161 | 27.22° C | 33% | 1020.6 hPa | - | - | - | - |
| 1777894261 | 26.67° C | 34% | 1020.9 hPa | - | - | - | - |
| 1777893361 | 26.67° C | 34% | 1021 hPa | - | - | - | - |
* Rain since midnight (hover to see other rain measurements)
** Current wind speed in m/s (hover to see current wind gust speed)